CW3467 Sant Marti de Canals ES current weather conditions

sailwx.info

Wind from 197 at 3 knots gusting 9

Air temperature 28.9° C
Dewpoint 14.3° C

Last reported at 2016-Jun-27 12:37 UTC.
Time now 2016-Jun-27 13:17 UTC

Location: N 42°14' E 000°59'.
View on Google Maps.

See reports from other nearby stations

  
Tides and Currents Weather Stations Pressure Air Temp Water Temp Dewpoint Dewpoint Depression Visibility Wind Speed Wind Dir Waves Ship Positions
date/time (UTC)wind fromknots sea level pressurealtimeterstation pressurevisibilityair tempwater tempwave heightnotes
2016-Jun-27 12:37 197 3 gusting 9 28.9
2016-Jun-27 12:06 239 2 gusting 6 27.8
2016-Jun-27 11:37 231 27.8
2016-Jun-27 11:07 183 1 gusting 5 26.1
2016-Jun-27 08:06 248 21.7
2016-Jun-27 07:07 229 20.0
2016-Jun-27 05:37 072 16.7
2016-Jun-27 05:07 072 16.1
2016-Jun-27 03:07 113 17.8
2016-Jun-27 02:07 353 18.3
2016-Jun-27 01:37 271 18.9
2016-Jun-27 01:07 107 18.9
2016-Jun-27 00:07 007 0 gusting 1 20.0
2016-Jun-26 23:37 044 19.4
2016-Jun-26 22:07 314 21.7
2016-Jun-26 20:37 150 3 gusting 4 22.2
2016-Jun-26 20:07 120 2 gusting 4 22.8
2016-Jun-26 19:07 215 2 gusting 3 24.4
2016-Jun-26 18:37 212 2 gusting 6 25.6
2016-Jun-26 18:06 233 3 gusting 5 26.1
2016-Jun-26 17:07 193 2 gusting 5 26.7
2016-Jun-26 16:36 036 2 gusting 6 26.7
2016-Jun-26 16:06 228 4 gusting 6 26.7
2016-Jun-26 15:37 233 2 gusting 5 26.7
2016-Jun-26 14:37 239 2 gusting 7 26.7
2016-Jun-26 13:36 215 4 gusting 6 25.0
2016-Jun-26 13:07 218 3 gusting 8 25.6
2016-Jun-26 12:07 194 3 gusting 7 25.6
2016-Jun-26 11:37 328 2 gusting 7 26.1
2016-Jun-26 10:37 226 5 gusting 10 23.3
2016-Jun-26 10:07 225 2 gusting 6 23.3
2016-Jun-26 09:37 195 3 gusting 6 23.9
2016-Jun-26 09:07 246 1 gusting 4 22.8
2016-Jun-26 08:07 222 0 gusting 3 21.1
2016-Jun-26 07:07 235 0 gusting 2 20.6
2016-Jun-26 06:07 339 0 gusting 1 17.8
2016-Jun-26 05:36 343 17.2
2016-Jun-26 05:07 348 0 gusting 1 17.8
2016-Jun-26 04:37 280 17.8
2016-Jun-26 04:07 342 0 gusting 1 18.3
2016-Jun-26 02:07 360 0 gusting 1 18.9
2016-Jun-26 01:37 015 0 gusting 0 19.4
2016-Jun-26 01:07 348 0 gusting 1 20.0
2016-Jun-26 00:07 349 1 gusting 3 20.0
2016-Jun-25 22:07 097 6 gusting 8 21.1
2016-Jun-25 21:37 146 6 gusting 11 22.2
2016-Jun-25 19:37 141 8 gusting 12 25.0
2016-Jun-25 19:07 152 8 gusting 16 25.6
2016-Jun-25 18:07 160 9 gusting 16 26.7
2016-Jun-25 17:07 141 6 gusting 13 28.3
2016-Jun-25 16:37 138 9 gusting 15 28.9
2016-Jun-25 15:37 200 5 gusting 10 29.4
2016-Jun-25 15:07 191 3 gusting 13 29.4
2016-Jun-25 14:37 252 4 gusting 11 30.0
2016-Jun-25 13:37 155 5 gusting 12 29.4